Time;durP1;ratioP1;P1;durP2;ratioP2;P2;SDS_P1;SDS_P2;PMS_P1;PMS_P2;Temp;Humidity;BMP_temperature;BMP_pressure;BME280_temperature;BME280_humidity;BME280_pressure;Samples;Min_cycle;Max_cycle;Signal;HPM_P1;HPM_P2
2022/09/06 00:01:57;;;;;;;8.03;5.20;;;;;;;20.53;55.75;101777.25;5046000;28;20479;-58
2022/09/06 00:04:22;;;;;;;6.37;4.93;;;;;;;20.55;55.71;101775.19;5046252;28;20402;-58
2022/09/06 00:06:48;;;;;;;7.50;4.40;;;;;;;20.53;55.67;101775.38;5046556;28;20780;-58
2022/09/06 00:09:13;;;;;;;8.20;4.73;;;;;;;20.54;55.66;101776.19;5046324;28;20480;-58
2022/09/06 00:11:39;;;;;;;7.40;4.57;;;;;;;20.53;55.71;101770.00;5046238;28;20377;-58
2022/09/06 00:14:04;;;;;;;5.47;4.80;;;;;;;20.54;55.67;101782.41;5045903;28;20374;-58
2022/09/06 00:18:33;;;;;;;6.30;4.88;;;;;;;20.52;55.75;101773.72;5101714;27;20414;-58
2022/09/06 00:20:59;;;;;;;8.55;5.28;;;;;;;20.52;55.71;101775.59;5088772;28;20455;-57
2022/09/06 00:23:24;;;;;;;8.00;5.50;;;;;;;20.49;55.64;101782.22;5086285;28;20386;-59
2022/09/06 00:25:50;;;;;;;7.10;5.40;;;;;;;20.48;55.73;101780.56;5087443;28;20417;-58
2022/09/06 00:28:15;;;;;;;8.75;5.82;;;;;;;20.44;55.65;101782.03;5086963;28;20378;-59
2022/09/06 00:30:41;;;;;;;7.47;5.20;;;;;;;20.41;55.91;101775.19;5085386;28;20391;-59
2022/09/06 00:33:06;;;;;;;6.40;4.80;;;;;;;20.39;55.83;101774.56;5086708;28;20428;-58
2022/09/06 00:35:32;;;;;;;6.77;5.93;;;;;;;20.39;55.90;101779.94;5086491;28;20420;-58
2022/09/06 00:38:00;;;;;;;6.50;4.88;;;;;;;20.36;55.99;101769.59;5086409;28;20421;-58
2022/09/06 00:40:28;;;;;;;7.05;5.43;;;;;;;20.33;55.91;101766.50;5085840;28;20394;-58
2022/09/06 00:42:54;;;;;;;6.30;5.45;;;;;;;20.33;55.97;101778.13;5086149;28;20385;-58
2022/09/06 00:45:21;;;;;;;7.43;5.53;;;;;;;20.34;55.96;101776.25;5083985;28;20694;-57
2022/09/06 00:47:47;;;;;;;9.13;6.45;;;;;;;20.31;56.05;101769.41;5086937;28;20383;-58
2022/09/06 00:51:35;;;;;;;7.32;5.55;;;;;;;20.27;56.14;101760.06;5065810;28;20499;-59
2022/09/06 00:55:12;;;;;;;7.55;4.80;;;;;;;20.28;56.07;101766.31;5049374;28;20414;-58
2022/09/06 00:57:38;;;;;;;7.15;4.90;;;;;;;20.22;56.06;101763.41;5046761;28;20386;-58
2022/09/06 01:00:07;;;;;;;7.53;4.75;;;;;;;20.24;56.08;101768.59;5045528;28;20398;-56
2022/09/06 01:02:32;;;;;;;6.03;4.90;;;;;;;20.20;56.07;101764.63;5046371;28;20439;-58
2022/09/06 01:07:18;;;;;;;7.47;5.00;;;;;;;20.18;56.37;101758.66;5088232;27;2250446;-58
2022/09/06 01:09:54;;;;;;;7.32;5.20;;;;;;;20.20;56.31;101767.34;5136133;27;20397;-57
2022/09/06 01:12:20;;;;;;;9.10;5.10;;;;;;;20.20;56.44;101765.50;5127756;28;20393;-58
2022/09/06 01:15:00;;;;;;;6.00;5.10;;;;;;;20.18;56.27;101772.91;5112239;28;20787;-58
2022/09/06 01:17:53;;;;;;;6.90;5.07;;;;;;;20.19;56.27;101768.38;5107254;28;20838;-58
2022/09/06 01:20:45;;;;;;;6.88;5.10;;;;;;;20.19;56.33;101768.38;5107192;28;20850;-59
2022/09/06 01:23:28;;;;;;;7.45;5.03;;;;;;;20.20;56.21;101764.63;5114940;28;20398;-58
2022/09/06 01:26:11;;;;;;;6.67;4.80;;;;;;;20.14;56.24;101760.91;5126679;28;20402;-57
2022/09/06 01:28:47;;;;;;;8.15;5.18;;;;;;;20.14;56.26;101763.63;5126734;28;20383;-58
2022/09/06 01:31:46;;;;;;;8.05;4.85;;;;;;;20.15;56.26;101767.13;5125560;28;20401;-57
2022/09/06 01:34:20;;;;;;;7.78;4.90;;;;;;;20.14;56.22;101768.19;5123750;28;20394;-57
2022/09/06 01:36:48;;;;;;;6.18;5.13;;;;;;;20.12;56.16;101768.38;5126908;28;20399;-57
2022/09/06 01:39:23;;;;;;;6.30;5.50;;;;;;;20.11;56.25;101769.41;5124973;28;20754;-58
2022/09/06 01:41:49;;;;;;;7.13;5.13;;;;;;;20.08;56.27;101766.31;5126573;28;20711;-58
2022/09/06 01:44:15;;;;;;;7.07;4.70;;;;;;;20.07;56.21;101761.97;5125242;28;20401;-58
2022/09/06 01:46:52;;;;;;;7.45;4.88;;;;;;;20.10;56.26;101764.25;5125203;28;20867;-58
2022/09/06 01:49:39;;;;;;;5.85;4.90;;;;;;;20.11;56.31;101757.81;5125551;28;20394;-58
2022/09/06 01:54:42;;;;;;;6.25;4.80;;;;;;;20.10;56.25;101756.19;5048211;28;20413;-56
2022/09/06 01:58:45;;;;;;;6.95;5.22;;;;;;;20.13;56.15;101755.75;5098646;27;20410;-57
2022/09/06 02:01:14;;;;;;;6.00;4.97;;;;;;;20.13;56.18;101761.13;5084913;28;20424;-58
2022/09/06 02:04:07;;;;;;;6.85;4.80;;;;;;;20.08;56.20;101755.53;5086478;28;20764;-58
2022/09/06 02:06:45;;;;;;;6.73;4.50;;;;;;;20.10;56.12;101761.56;5085997;28;20489;-58
2022/09/06 02:09:15;;;;;;;8.07;4.90;;;;;;;20.08;56.26;101759.06;5085904;28;20425;-58
2022/09/06 02:11:53;;;;;;;6.67;4.90;;;;;;;20.08;56.40;101761.78;5086026;28;20765;-58
2022/09/06 02:16:00;;;;;;;7.68;4.97;;;;;;;20.03;56.51;101765.06;5048907;28;20400;-58
2022/09/06 02:18:53;;;;;;;7.22;4.80;;;;;;;20.00;56.60;101751.19;5046460;28;20419;-58
2022/09/06 02:21:24;;;;;;;8.50;5.30;;;;;;;20.02;56.72;101759.88;5045915;28;20512;-58
2022/09/06 02:23:54;;;;;;;6.60;5.18;;;;;;;19.98;56.85;101755.97;5045661;28;20428;-58
2022/09/06 02:29:45;;;;;;;6.63;5.53;;;;;;;19.88;57.21;101756.38;5047981;28;20405;-57
2022/09/06 02:32:19;;;;;;;7.95;5.28;;;;;;;19.92;57.21;101767.56;5045324;28;20921;-57
2022/09/06 02:34:45;;;;;;;7.00;5.20;;;;;;;19.91;57.24;101765.91;5037147;28;20852;-56
2022/09/06 02:37:12;;;;;;;6.15;4.97;;;;;;;19.91;57.41;101766.72;5046078;28;20408;-57
2022/09/06 02:39:38;;;;;;;8.13;5.43;;;;;;;19.92;57.37;101759.50;5045827;28;20409;-57
2022/09/06 02:42:04;;;;;;;9.85;6.07;;;;;;;19.92;57.41;101765.69;5045353;28;20417;-57
2022/09/06 02:44:31;;;;;;;8.25;5.88;;;;;;;19.90;57.65;101765.06;5045902;28;20429;-57
2022/09/06 02:46:57;;;;;;;8.25;6.55;;;;;;;19.94;57.88;101765.50;5045169;28;20402;-57
2022/09/06 02:49:22;;;;;;;8.67;7.27;;;;;;;19.92;58.09;101767.56;5044041;28;20415;-57
2022/09/06 02:53:09;;;;;;;10.77;6.80;;;;;;;19.95;58.23;101777.91;5086609;27;20829;-58
2022/09/06 02:58:01;;;;;;;12.60;7.35;;;;;;;19.93;58.81;101777.28;5069006;27;20419;-58
2022/09/06 03:00:28;;;;;;;10.98;7.30;;;;;;;19.99;58.74;101777.28;5064191;28;20431;-60
2022/09/06 03:05:55;;;;;;;11.18;7.50;;;;;;;20.03;58.56;101769.63;5092638;27;20456;-58
2022/09/06 03:08:24;;;;;;;11.07;7.45;;;;;;;20.11;58.48;101779.34;5084000;28;20393;-57
2022/09/06 03:10:54;;;;;;;10.13;7.38;;;;;;;20.05;58.61;101771.06;5068210;28;20921;-57
2022/09/06 03:13:21;;;;;;;11.07;7.93;;;;;;;20.03;58.86;101781.22;5075575;28;20845;-57
2022/09/06 03:16:04;;;;;;;13.70;8.23;;;;;;;20.06;59.21;101777.31;5071855;28;20829;-58
2022/09/06 03:18:31;;;;;;;12.68;7.85;;;;;;;20.09;59.09;101774.16;5084268;28;20389;-57
2022/09/06 03:20:57;;;;;;;11.52;8.48;;;;;;;20.07;59.27;101772.75;5081274;28;20421;-59
2022/09/06 03:23:25;;;;;;;12.35;8.48;;;;;;;20.05;59.39;101768.38;5065589;28;20424;-58
2022/09/06 03:25:50;;;;;;;13.13;7.80;;;;;;;20.12;59.39;101781.03;5077745;28;20535;-57
2022/09/06 03:28:38;;;;;;;15.55;8.57;;;;;;;20.13;59.43;101774.59;5086784;27;20932;-58
2022/09/06 03:31:03;;;;;;;11.70;8.60;;;;;;;20.10;59.46;101775.84;5086051;28;20458;-60
2022/09/06 03:33:29;;;;;;;12.73;8.57;;;;;;;20.11;59.54;101776.66;5086464;28;20422;-58
2022/09/06 03:35:58;;;;;;;11.18;8.45;;;;;;;20.16;59.58;101779.56;5089315;28;20387;-58
2022/09/06 03:38:25;;;;;;;10.10;7.70;;;;;;;20.16;59.42;101780.38;5085157;28;20394;-58
2022/09/06 03:40:52;;;;;;;12.52;8.05;;;;;;;20.14;59.37;101774.38;5078302;28;20390;-58
2022/09/06 03:43:18;;;;;;;10.05;7.75;;;;;;;20.20;59.32;101778.09;5086407;28;20750;-57
2022/09/06 03:45:45;;;;;;;10.85;8.05;;;;;;;20.20;59.38;101783.50;5084437;28;20394;-58
2022/09/06 03:48:11;;;;;;;12.05;8.25;;;;;;;20.16;59.49;101774.19;5086153;28;20410;-58
2022/09/06 03:50:36;;;;;;;9.83;7.57;;;;;;;20.11;59.39;101776.66;5085123;28;20401;-57
2022/09/06 03:53:02;;;;;;;10.70;7.73;;;;;;;20.16;59.60;101779.56;5085729;28;20886;-58
2022/09/06 03:55:27;;;;;;;12.97;9.27;;;;;;;20.15;59.72;101773.38;5086363;28;20444;-57
2022/09/06 03:57:52;;;;;;;12.43;9.07;;;;;;;20.10;59.91;101773.16;5086608;28;20469;-58
2022/09/06 04:00:18;;;;;;;13.93;10.10;;;;;;;20.10;59.91;101773.16;5083725;28;20394;-57
2022/09/06 04:02:43;;;;;;;14.37;9.90;;;;;;;20.17;59.80;101773.16;5086078;28;20406;-58
2022/09/06 04:05:09;;;;;;;12.70;9.27;;;;;;;20.14;59.89;101777.06;5085601;28;20449;-60
2022/09/06 04:07:36;;;;;;;13.63;9.70;;;;;;;20.14;60.00;101787.03;5085832;28;20421;-57
2022/09/06 04:10:02;;;;;;;13.83;9.40;;;;;;;20.19;59.95;101781.84;5085040;28;20828;-58
2022/09/06 04:12:28;;;;;;;15.03;11.60;;;;;;;20.21;59.80;101785.97;5085944;28;20458;-57
2022/09/06 04:14:53;;;;;;;15.35;10.32;;;;;;;20.29;59.76;101786.81;5085102;28;20483;-58
2022/09/06 04:17:19;;;;;;;13.83;8.83;;;;;;;20.38;59.43;101780.16;5084801;28;20776;-58
2022/09/06 04:19:44;;;;;;;12.18;7.97;;;;;;;20.39;59.36;101779.13;5085330;28;20409;-58
2022/09/06 04:22:10;;;;;;;12.60;7.77;;;;;;;20.37;59.49;101787.41;5085624;28;20412;-58
2022/09/06 04:24:35;;;;;;;10.93;7.63;;;;;;;20.38;59.51;101788.25;5084096;28;20402;-58
2022/09/06 04:27:01;;;;;;;12.32;8.10;;;;;;;20.41;59.43;101799.41;5085603;28;20453;-58
2022/09/06 04:29:26;;;;;;;11.30;7.70;;;;;;;20.42;59.40;101794.88;5084284;28;20390;-58
2022/09/06 04:31:51;;;;;;;12.37;7.77;;;;;;;20.42;59.42;101794.88;5086910;28;20438;-58
2022/09/06 04:34:18;;;;;;;13.60;7.82;;;;;;;20.47;59.10;101799.63;5085574;28;20965;-57
2022/09/06 04:36:44;;;;;;;12.18;7.70;;;;;;;20.40;59.10;101791.53;5084334;28;20432;-57
2022/09/06 04:39:09;;;;;;;16.02;7.90;;;;;;;20.45;59.15;101799.84;5075545;28;20442;-59
2022/09/06 04:41:35;;;;;;;13.03;8.10;;;;;;;20.49;58.95;101809.16;5070508;28;20387;-57
2022/09/06 04:44:00;;;;;;;12.63;7.93;;;;;;;20.50;59.16;101801.91;5071050;28;20753;-59
2022/09/06 04:46:28;;;;;;;15.30;10.20;;;;;;;20.56;58.92;101798.38;5070234;28;20507;-58
2022/09/06 04:48:55;;;;;;;14.88;10.77;;;;;;;20.54;58.87;101812.03;5069288;28;20393;-57
2022/09/06 04:51:22;;;;;;;13.20;8.80;;;;;;;20.58;58.85;101807.91;5070056;28;20395;-59
2022/09/06 04:53:47;;;;;;;13.43;9.20;;;;;;;20.60;58.78;101803.13;5068296;28;20496;-60
2022/09/06 04:56:21;;;;;;;14.68;9.10;;;;;;;20.66;58.65;101806.88;5070514;28;20395;-59
2022/09/06 04:58:48;;;;;;;13.60;7.75;;;;;;;20.71;58.42;101803.56;5067904;28;20405;-59
2022/09/06 05:01:14;;;;;;;12.15;6.60;;;;;;;20.78;58.25;101807.06;5069026;28;20447;-59
2022/09/06 05:03:40;;;;;;;12.15;9.57;;;;;;;20.84;57.69;101802.69;5069892;28;20383;-60
2022/09/06 05:06:11;;;;;;;13.57;7.53;;;;;;;20.89;57.36;101806.41;5069201;28;20395;-57
2022/09/06 05:08:38;;;;;;;10.63;6.87;;;;;;;20.93;57.12;101802.25;5067726;28;20415;-56
2022/09/06 05:11:04;;;;;;;9.25;6.70;;;;;;;20.98;56.86;101802.44;5069356;28;20387;-57
2022/09/06 05:13:30;;;;;;;14.55;7.20;;;;;;;21.06;56.61;101801.38;5070317;28;20865;-58
2022/09/06 05:15:59;;;;;;;14.57;7.20;;;;;;;21.11;56.55;101806.13;5068975;28;20415;-57
2022/09/06 05:18:25;;;;;;;8.93;7.03;;;;;;;21.18;56.32;101802.34;5071405;28;20470;-58
2022/09/06 05:20:51;;;;;;;11.40;7.77;;;;;;;21.25;56.11;101809.59;5069211;28;20468;-58
2022/09/06 05:23:17;;;;;;;14.57;9.30;;;;;;;21.26;56.09;101809.38;5069336;28;20399;-57
2022/09/06 05:25:43;;;;;;;13.43;9.40;;;;;;;21.31;55.88;101806.03;5072410;28;20392;-58
2022/09/06 05:28:08;;;;;;;13.10;8.70;;;;;;;21.43;55.93;101812.41;5079477;28;20422;-57
2022/09/06 05:30:34;;;;;;;13.50;8.10;;;;;;;21.46;55.78;101811.19;5071920;28;20493;-57
2022/09/06 05:32:59;;;;;;;12.07;7.50;;;;;;;21.51;55.66;101808.66;5069748;28;20936;-57
2022/09/06 05:35:24;;;;;;;14.60;7.80;;;;;;;21.60;55.82;101817.34;5069702;28;20881;-57
2022/09/06 05:37:50;;;;;;;12.50;7.47;;;;;;;21.68;55.32;101815.22;5068079;28;20950;-57
2022/09/06 05:40:42;;;;;;;14.40;8.07;;;;;;;21.78;55.36;101822.81;5046693;28;20413;-58
2022/09/06 05:43:08;;;;;;;11.63;8.33;;;;;;;21.80;55.33;101817.22;5045396;28;20480;-58
2022/09/06 05:45:33;;;;;;;11.50;8.60;;;;;;;21.87;55.31;101813.41;5042549;28;20451;-58
2022/09/06 05:47:59;;;;;;;13.60;8.90;;;;;;;21.96;55.17;101813.97;5047996;28;20880;-57
2022/09/06 05:50:24;;;;;;;12.03;8.50;;;;;;;22.06;54.88;101817.03;5045453;28;20482;-58
2022/09/06 05:55:36;;;;;;;12.70;8.88;;;;;;;22.24;54.61;101810.03;5044556;28;20403;-58
2022/09/06 05:58:02;;;;;;;12.50;9.50;;;;;;;22.29;54.52;101812.91;5044366;28;20394;-57
2022/09/06 06:00:27;;;;;;;13.00;9.55;;;;;;;22.42;54.29;101807.41;5045782;28;20428;-58
2022/09/06 06:02:52;;;;;;;12.17;9.17;;;;;;;22.57;54.18;101814.31;5046368;28;20398;-58
2022/09/06 06:05:18;;;;;;;14.77;9.90;;;;;;;22.74;53.68;101812.66;5045553;28;20899;-57
2022/09/06 06:07:43;;;;;;;14.40;9.90;;;;;;;22.94;53.18;101808.94;5043541;28;20926;-57
2022/09/06 06:10:09;;;;;;;17.70;9.88;;;;;;;23.23;52.75;101812.78;5046961;28;20394;-59
2022/09/06 06:12:35;;;;;;;15.55;10.32;;;;;;;23.42;51.87;101803.56;5046641;28;20470;-56
2022/09/06 06:15:00;;;;;;;15.20;10.03;;;;;;;23.71;51.47;101806.47;5043993;28;21488;-58
2022/09/06 06:17:26;;;;;;;15.27;10.43;;;;;;;23.76;51.06;101806.59;5045142;28;20404;-56
2022/09/06 06:19:52;;;;;;;11.90;9.50;;;;;;;24.04;50.27;101810.59;5047164;28;20925;-57
2022/09/06 06:22:17;;;;;;;11.67;10.13;;;;;;;24.67;48.88;101810.97;5051762;28;20436;-58
2022/09/06 06:24:43;;;;;;;11.52;9.38;;;;;;;24.87;48.36;101816.84;5060599;28;20429;-57
2022/09/06 06:27:08;;;;;;;13.03;9.63;;;;;;;24.94;47.95;101814.00;5048851;28;20456;-57
2022/09/06 06:29:34;;;;;;;15.87;9.30;;;;;;;25.08;47.98;101815.34;5057092;28;20950;-56
2022/09/06 06:31:59;;;;;;;10.97;8.87;;;;;;;25.35;47.34;101818.38;5044918;28;20891;-57
2022/09/06 06:34:25;;;;;;;10.65;8.27;;;;;;;25.74;46.55;101820.44;5044984;28;20390;-58
2022/09/06 06:36:50;;;;;;;10.47;8.47;;;;;;;26.24;45.13;101818.84;5048796;28;20409;-58
2022/09/06 06:39:15;;;;;;;11.37;9.20;;;;;;;26.32;44.65;101829.28;5047464;28;20519;-57
2022/09/06 06:41:41;;;;;;;9.77;8.60;;;;;;;26.44;44.35;101824.56;5045591;28;20398;-57
2022/09/06 06:44:06;;;;;;;9.77;7.80;;;;;;;27.09;42.91;101831.19;5047027;28;20543;-59
2022/09/06 06:46:35;;;;;;;12.27;8.40;;;;;;;27.27;42.83;101829.25;5045501;28;20488;-58
2022/09/06 06:49:01;;;;;;;10.48;7.82;;;;;;;27.44;42.06;101815.53;5058244;28;20889;-58
2022/09/06 06:51:30;;;;;;;9.63;7.90;;;;;;;27.54;42.08;101823.81;5033868;28;20564;-56
2022/09/06 06:53:56;;;;;;;9.90;8.00;;;;;;;28.07;40.90;101829.47;5029866;28;20401;-56
2022/09/06 06:56:22;;;;;;;9.23;8.00;;;;;;;28.05;40.73;101826.19;5029665;28;20406;-58
2022/09/06 06:58:51;;;;;;;11.63;8.63;;;;;;;27.87;41.19;101830.09;5032246;28;20434;-58
2022/09/06 07:01:19;;;;;;;11.68;8.10;;;;;;;27.48;41.83;101829.44;5034814;28;20400;-58
2022/09/06 07:03:45;;;;;;;10.57;8.47;;;;;;;27.56;42.05;101839.91;5031337;28;20896;-58
2022/09/06 07:06:11;;;;;;;13.25;8.38;;;;;;;28.36;40.55;101838.16;5033684;28;20998;-56
2022/09/06 07:08:37;;;;;;;12.45;8.80;;;;;;;30.83;36.04;101833.16;5028744;28;20402;-58
2022/09/06 07:11:04;;;;;;;12.52;7.70;;;;;;;34.25;30.92;101818.75;5039601;28;20432;-56
2022/09/06 07:13:32;;;;;;;11.23;7.60;;;;;;;32.16;33.54;101826.00;5045186;28;20401;-57
2022/09/06 07:16:19;;;;;;;9.68;7.40;;;;;;;29.91;36.71;101834.94;5033606;28;20583;-57
2022/09/06 07:18:46;;;;;;;10.95;7.38;;;;;;;29.29;37.66;101839.44;5029847;28;20888;-56
2022/09/06 07:21:17;;;;;;;10.20;7.70;;;;;;;28.48;39.00;101832.47;5032630;28;20399;-58
2022/09/06 07:23:43;;;;;;;13.50;7.45;;;;;;;27.81;40.54;101834.69;5029592;28;20402;-56
2022/09/06 07:26:17;;;;;;;14.23;8.05;;;;;;;27.45;41.27;101839.78;5030269;28;20859;-57
2022/09/06 07:28:42;;;;;;;12.20;8.40;;;;;;;27.36;41.90;101844.03;5026561;28;20925;-57
2022/09/06 07:31:09;;;;;;;13.02;8.00;;;;;;;27.21;42.32;101846.56;5023763;28;20409;-57
2022/09/06 07:33:36;;;;;;;9.13;8.13;;;;;;;26.75;42.86;101846.78;5024975;28;20918;-57
2022/09/06 07:36:04;;;;;;;10.93;8.18;;;;;;;26.50;43.45;101847.22;5040318;28;20410;-57
2022/09/06 07:38:31;;;;;;;10.18;7.75;;;;;;;26.54;43.60;101844.81;5027809;28;20453;-56
2022/09/06 07:41:02;;;;;;;10.10;7.95;;;;;;;26.68;43.21;101840.72;5028534;28;20549;-58
2022/09/06 07:43:28;;;;;;;12.02;7.93;;;;;;;26.82;43.34;101835.75;5028008;28;20420;-59
2022/09/06 07:46:05;;;;;;;8.48;7.25;;;;;;;26.74;43.37;101845.16;5028710;28;20434;-57
2022/09/06 07:48:32;;;;;;;9.63;7.85;;;;;;;26.37;43.66;101840.25;5025935;28;20404;-58
2022/09/06 07:51:15;;;;;;;8.57;7.05;;;;;;;26.35;44.02;101836.94;5026050;28;20402;-58
2022/09/06 07:53:42;;;;;;;9.25;7.35;;;;;;;26.54;43.76;101833.94;5028109;28;20482;-59
2022/09/06 07:56:10;;;;;;;9.17;7.37;;;;;;;26.45;43.95;101836.28;5029422;28;20394;-57
2022/09/06 07:58:38;;;;;;;8.20;7.10;;;;;;;26.36;43.87;101845.91;5028023;28;20997;-57
2022/09/06 08:01:33;;;;;;;9.45;7.38;;;;;;;26.07;44.37;101840.56;5027093;28;20413;-57
2022/09/06 08:04:05;;;;;;;9.77;6.75;;;;;;;26.33;44.44;101845.34;5026850;28;20927;-56
2022/09/06 08:06:33;;;;;;;9.73;7.15;;;;;;;26.45;43.94;101833.53;5028673;28;20398;-57
2022/09/06 08:08:59;;;;;;;8.00;6.93;;;;;;;26.47;43.97;101837.69;5022838;28;20402;-57
2022/09/06 08:11:28;;;;;;;7.45;6.35;;;;;;;26.52;43.99;101837.75;5027721;28;20394;-59
2022/09/06 08:13:55;;;;;;;9.82;7.10;;;;;;;26.59;43.71;101834.84;5026540;28;20908;-57
2022/09/06 08:16:21;;;;;;;11.48;7.20;;;;;;;26.42;43.65;101834.88;5026840;28;20410;-57
2022/09/06 08:18:51;;;;;;;10.60;7.10;;;;;;;26.12;44.27;101836.03;5027058;28;20506;-57
2022/09/06 08:21:17;;;;;;;7.82;7.03;;;;;;;25.87;44.74;101830.97;5026992;28;20423;-57
2022/09/06 08:23:47;;;;;;;8.33;6.80;;;;;;;25.89;45.00;101828.00;5028148;28;20892;-57
2022/09/06 08:26:17;;;;;;;7.65;5.90;;;;;;;26.03;45.07;101826.66;5027273;28;20390;-57
2022/09/06 08:29:43;;;;;;;8.18;6.25;;;;;;;26.18;44.28;101827.97;5082186;27;20815;-57
2022/09/06 08:32:09;;;;;;;8.57;6.50;;;;;;;26.21;43.85;101824.78;5082103;28;20422;-59
2022/09/06 08:34:35;;;;;;;8.60;5.70;;;;;;;26.18;44.04;101811.66;5082702;28;20422;-58
2022/09/06 08:37:00;;;;;;;7.87;5.90;;;;;;;25.93;44.60;101819.19;5085992;28;20479;-59
2022/09/06 08:39:26;;;;;;;7.53;5.80;;;;;;;25.97;44.23;101822.22;5084733;28;20402;-58
2022/09/06 08:41:59;;;;;;;8.00;6.03;;;;;;;26.15;44.41;101807.56;5085887;28;20398;-59
2022/09/06 08:44:37;;;;;;;7.80;5.38;;;;;;;26.28;43.77;101809.13;5085499;28;20468;-58
2022/09/06 08:47:07;;;;;;;7.50;5.07;;;;;;;26.58;43.52;101806.03;5084385;28;21005;-57
2022/09/06 08:49:46;;;;;;;7.18;4.82;;;;;;;26.95;43.04;101810.06;5084432;28;20422;-58
2022/09/06 08:52:29;;;;;;;8.60;5.20;;;;;;;27.12;43.20;101794.47;5086671;28;20923;-58
2022/09/06 08:54:55;;;;;;;7.43;5.18;;;;;;;27.18;42.79;101795.34;5083212;28;20398;-59
2022/09/06 08:57:57;;;;;;;9.03;5.40;;;;;;;26.95;42.44;101807.34;5082791;28;20904;-58
2022/09/06 09:00:23;;;;;;;7.20;5.20;;;;;;;26.91;42.83;101798.84;5078940;28;21362;-58
2022/09/06 09:03:11;;;;;;;7.07;5.55;;;;;;;26.85;42.39;101808.03;5082622;28;20489;-57
2022/09/06 09:05:38;;;;;;;6.90;5.15;;;;;;;26.95;42.40;101797.25;5078327;28;20912;-60
2022/09/06 09:09:33;;;;;;;7.25;5.50;;;;;;;26.89;42.74;101801.00;5058414;27;20400;-59
2022/09/06 09:12:00;;;;;;;7.20;5.55;;;;;;;26.89;42.65;101793.66;5056938;28;20411;-59
2022/09/06 09:14:34;;;;;;;7.18;4.90;;;;;;;27.09;42.55;101786.81;5058732;28;20384;-59
2022/09/06 09:17:13;;;;;;;7.38;5.20;;;;;;;27.31;42.18;101786.81;5056704;28;20396;-58
2022/09/06 09:19:41;;;;;;;7.63;5.40;;;;;;;27.54;41.85;101779.41;5050221;28;20439;-59
2022/09/06 09:22:06;;;;;;;7.10;5.20;;;;;;;27.64;41.66;101774.88;5064937;28;20951;-58
2022/09/06 09:24:33;;;;;;;7.47;4.70;;;;;;;27.68;41.55;101768.88;5062738;28;20415;-57
2022/09/06 09:27:05;;;;;;;6.50;4.63;;;;;;;27.90;41.09;101768.81;5064261;28;20383;-57
2022/09/06 09:29:31;;;;;;;5.82;4.70;;;;;;;27.93;40.77;101746.50;5063195;28;20406;-61
2022/09/06 09:31:56;;;;;;;7.07;5.40;;;;;;;27.85;41.34;101751.31;5063066;28;20865;-58
2022/09/06 09:34:32;;;;;;;7.57;5.10;;;;;;;27.45;41.86;101744.47;5066299;28;20451;-58
2022/09/06 09:37:19;;;;;;;6.93;5.10;;;;;;;27.23;42.19;101738.25;5066404;28;20724;-58
2022/09/06 09:39:46;;;;;;;9.90;4.13;;;;;;;27.33;42.40;101741.09;5066343;28;20893;-58
2022/09/06 09:42:22;;;;;;;7.88;5.22;;;;;;;27.42;41.84;101739.56;5066106;28;20380;-58
2022/09/06 09:44:47;;;;;;;6.38;4.78;;;;;;;27.36;41.27;101742.47;5070462;28;20392;-59
2022/09/06 09:47:27;;;;;;;8.63;4.63;;;;;;;27.31;41.87;101739.72;5081531;28;20393;-58
2022/09/06 09:49:57;;;;;;;7.70;4.38;;;;;;;27.46;42.11;101739.88;5080782;28;20416;-57
2022/09/06 09:52:28;;;;;;;5.67;4.37;;;;;;;27.32;42.01;101736.72;5048730;28;20528;-60
2022/09/06 09:55:00;;;;;;;7.85;4.68;;;;;;;27.23;41.81;101739.06;5045446;28;20748;-58
2022/09/06 09:57:29;;;;;;;8.90;5.00;;;;;;;27.08;42.06;101736.16;5046195;28;20382;-59
2022/09/06 10:00:00;;;;;;;7.13;4.57;;;;;;;27.20;42.04;101746.91;5046057;28;20381;-59
2022/09/06 10:02:39;;;;;;;5.38;4.35;;;;;;;27.13;40.98;101732.69;5067311;28;20387;-59
2022/09/06 10:05:19;;;;;;;6.25;4.10;;;;;;;27.16;41.44;101732.19;5065560;28;20395;-59
2022/09/06 10:07:44;;;;;;;5.22;4.32;;;;;;;27.06;41.62;101730.16;5065246;28;20902;-58
2022/09/06 10:10:14;;;;;;;8.75;4.60;;;;;;;27.22;41.40;101728.44;5063850;28;20403;-58
2022/09/06 10:12:41;;;;;;;6.22;4.38;;;;;;;27.23;41.78;101730.91;5064825;28;20495;-58
2022/09/06 10:15:30;;;;;;;7.00;4.55;;;;;;;27.13;41.68;101730.78;5065010;28;21012;-58
2022/09/06 10:18:51;;;;;;;5.93;4.60;;;;;;;27.09;41.99;101722.31;5049531;28;20431;-60
2022/09/06 10:21:22;;;;;;;7.25;4.60;;;;;;;26.95;42.20;101731.94;5046257;28;20501;-58
2022/09/06 10:24:23;;;;;;;4.78;4.30;;;;;;;27.02;42.01;101723.59;5045697;28;20404;-58
2022/09/06 10:26:58;;;;;;;8.10;4.50;;;;;;;26.99;42.02;101724.09;5040656;28;20405;-59
2022/09/06 10:29:41;;;;;;;9.60;4.53;;;;;;;27.00;42.03;101714.88;5044115;28;20402;-59
2022/09/06 10:32:12;;;;;;;6.60;4.60;;;;;;;26.95;41.86;101721.06;5044172;28;20408;-58
2022/09/06 10:34:59;;;;;;;4.90;4.40;;;;;;;26.98;41.98;101720.56;5041897;28;20881;-58
2022/09/06 10:37:49;;;;;;;7.05;4.60;;;;;;;27.07;41.74;101710.06;5046524;28;20413;-59
2022/09/06 10:40:32;;;;;;;5.88;4.22;;;;;;;27.17;41.84;101712.03;5046278;28;20397;-59
2022/09/06 10:43:00;;;;;;;8.10;4.40;;;;;;;27.11;41.78;101708.44;5046163;28;20378;-58
2022/09/06 10:45:46;;;;;;;5.97;3.97;;;;;;;27.11;41.42;101711.16;5046545;28;20382;-60
2022/09/06 10:48:17;;;;;;;6.43;4.38;;;;;;;27.19;41.22;101707.16;5046570;28;20388;-60
2022/09/06 10:50:48;;;;;;;6.97;4.00;;;;;;;27.23;40.50;101700.94;5045347;28;20479;-59
2022/09/06 10:53:20;;;;;;;9.65;4.18;;;;;;;27.30;40.70;101694.50;5042948;28;20887;-58
2022/09/06 10:56:11;;;;;;;6.45;4.00;;;;;;;27.11;40.90;101708.44;5041757;28;20386;-56
2022/09/06 10:58:47;;;;;;;5.90;4.00;;;;;;;27.20;41.30;101690.56;5043817;28;20422;-58
2022/09/06 11:01:30;;;;;;;6.70;3.87;;;;;;;27.34;41.12;101690.19;5042277;28;20394;-58
2022/09/06 11:03:59;;;;;;;6.70;4.10;;;;;;;27.30;40.75;101699.94;5042111;28;20405;-58
2022/09/06 11:06:31;;;;;;;5.13;4.10;;;;;;;27.11;40.82;101689.41;5042825;28;20468;-60
2022/09/06 11:09:13;;;;;;;4.65;3.92;;;;;;;27.04;40.53;101689.59;5042888;28;20406;-64
2022/09/06 11:11:43;;;;;;;5.15;3.42;;;;;;;27.09;40.79;101683.41;5024031;28;20746;-59
2022/09/06 11:14:14;;;;;;;5.55;3.33;;;;;;;27.02;40.13;101680.06;5024757;28;20423;-57
2022/09/06 11:17:12;;;;;;;3.95;3.28;;;;;;;27.09;40.15;101683.41;5024569;28;20391;-58
2022/09/06 11:20:02;;;;;;;6.25;3.40;;;;;;;27.12;40.23;101677.44;5025734;28;20395;-58
2022/09/06 11:22:27;;;;;;;4.32;3.53;;;;;;;27.15;40.19;101678.81;5025781;28;20821;-58
2022/09/06 11:25:05;;;;;;;4.83;3.57;;;;;;;27.34;39.53;101687.47;5025737;28;20877;-58
2022/09/06 11:27:30;;;;;;;5.90;3.50;;;;;;;27.38;39.22;101674.97;5025631;28;20379;-59
2022/09/06 11:29:58;;;;;;;5.40;3.60;;;;;;;27.36;38.59;101679.88;5012780;28;20398;-58
2022/09/06 11:32:32;;;;;;;3.85;3.40;;;;;;;27.33;38.73;101672.19;5012184;28;20395;-59
2022/09/06 11:35:00;;;;;;;7.50;3.67;;;;;;;27.47;37.68;101673.41;5012073;28;20858;-58
2022/09/06 11:37:35;;;;;;;7.78;3.78;;;;;;;27.55;37.71;101663.94;5012209;28;20450;-59
2022/09/06 11:40:14;;;;;;;4.22;3.38;;;;;;;27.52;37.87;101668.00;5011956;28;20384;-58
2022/09/06 11:43:01;;;;;;;6.55;3.92;;;;;;;27.46;38.36;101667.16;5012162;28;20414;-59
2022/09/06 11:45:46;;;;;;;3.78;3.38;;;;;;;27.44;38.57;101669.31;5011227;28;20399;-59
2022/09/06 11:48:25;;;;;;;3.75;3.25;;;;;;;27.23;38.28;101653.88;5010896;28;20929;-59
2022/09/06 11:50:53;;;;;;;3.60;3.30;;;;;;;27.14;38.38;101650.78;5012081;28;20384;-59
2022/09/06 11:53:21;;;;;;;5.78;3.80;;;;;;;27.15;38.66;101654.31;5012111;28;20385;-59
2022/09/06 11:55:49;;;;;;;4.70;3.35;;;;;;;27.14;38.80;101653.50;5011748;28;20394;-58
2022/09/06 11:58:17;;;;;;;4.45;3.70;;;;;;;27.11;38.90;101651.28;5012197;28;20426;-59
2022/09/06 12:00:44;;;;;;;5.93;3.30;;;;;;;27.13;39.13;101646.41;5011873;28;20424;-59
2022/09/06 12:03:41;;;;;;;4.13;3.70;;;;;;;27.12;39.05;101646.66;5012127;28;20415;-58
2022/09/06 12:06:26;;;;;;;5.50;3.30;;;;;;;27.03;39.12;101652.59;5011754;28;20888;-59